TAF and METAR

Could not understand the following METAR

YMEK 191500Z AUTO 14011KT 9999 // NCD 28/16 Q1012
No TAF available for Meekatharra Airport
Meekatharra Airport in Australia at 522m

Latest 5 airports